sensor_id;sensor_type;location;lat;lon;timestamp;pressure;altitude;pressure_sealevel;temperature;humidity
9421;BME280;4749;51.398;5.466;2023-11-19T00:00:10;100871.91;;;13.32;100.00
9421;BME280;4749;51.398;5.466;2023-11-19T00:02:39;100876.31;;;13.32;100.00
9421;BME280;4749;51.398;5.466;2023-11-19T00:05:07;100865.75;;;13.33;100.00
9421;BME280;4749;51.398;5.466;2023-11-19T00:07:36;100862.22;;;13.33;100.00
9421;BME280;4749;51.398;5.466;2023-11-19T00:10:04;100865.72;;;13.35;100.00
9421;BME280;4749;51.398;5.466;2023-11-19T00:12:34;100856.91;;;13.36;100.00
9421;BME280;4749;51.398;5.466;2023-11-19T00:15:01;100860.41;;;13.36;100.00
9421;BME280;4749;51.398;5.466;2023-11-19T00:17:28;100850.75;;;13.38;100.00
9421;BME280;4749;51.398;5.466;2023-11-19T00:19:57;100848.09;;;13.38;100.00
9421;BME280;4749;51.398;5.466;2023-11-19T00:22:24;100849.81;;;13.41;100.00
9421;BME280;4749;51.398;5.466;2023-11-19T00:24:52;100838.38;;;13.42;100.00
9421;BME280;4749;51.398;5.466;2023-11-19T00:27:19;100837.47;;;13.43;100.00
9421;BME280;4749;51.398;5.466;2023-11-19T00:29:47;100836.59;;;13.44;100.00
9421;BME280;4749;51.398;5.466;2023-11-19T00:32:14;100811.06;;;13.43;100.00
9421;BME280;4749;51.398;5.466;2023-11-19T00:34:44;100808.41;;;13.44;100.00
9421;BME280;4749;51.398;5.466;2023-11-19T00:37:12;100807.53;;;13.44;100.00
9421;BME280;4749;51.398;5.466;2023-11-19T00:39:39;100819.00;;;13.43;100.00
9421;BME280;4749;51.398;5.466;2023-11-19T00:42:06;100811.06;;;13.43;100.00
9421;BME280;4749;51.398;5.466;2023-11-19T00:44:33;100817.22;;;13.45;100.00
9421;BME280;4749;51.398;5.466;2023-11-19T00:47:00;100820.75;;;13.45;100.00
9421;BME280;4749;51.398;5.466;2023-11-19T00:49:28;100817.22;;;13.45;100.00
9421;BME280;4749;51.398;5.466;2023-11-19T00:51:55;100814.56;;;13.45;100.00
9421;BME280;4749;51.398;5.466;2023-11-19T00:54:23;100817.22;;;13.43;100.00
9421;BME280;4749;51.398;5.466;2023-11-19T00:56:52;100813.72;;;13.43;100.00
9421;BME280;4749;51.398;5.466;2023-11-19T00:59:20;100822.53;;;13.42;100.00
9421;BME280;4749;51.398;5.466;2023-11-19T01:01:47;100823.38;;;13.44;100.00
9421;BME280;4749;51.398;5.466;2023-11-19T01:04:20;100821.63;;;13.44;100.00
9421;BME280;4749;51.398;5.466;2023-11-19T01:06:47;100820.75;;;13.45;100.00
9421;BME280;4749;51.398;5.466;2023-11-19T01:09:16;100810.19;;;13.45;100.00
9421;BME280;4749;51.398;5.466;2023-11-19T01:11:44;100822.50;;;13.45;100.00
9421;BME280;4749;51.398;5.466;2023-11-19T01:14:11;100826.91;;;13.46;100.00
9421;BME280;4749;51.398;5.466;2023-11-19T01:16:39;100815.44;;;13.47;100.00
9421;BME280;4749;51.398;5.466;2023-11-19T01:19:06;100823.41;;;13.45;100.00
9421;BME280;4749;51.398;5.466;2023-11-19T01:21:43;100821.63;;;13.44;100.00
9421;BME280;4749;51.398;5.466;2023-11-19T01:24:10;100817.22;;;13.43;100.00
9421;BME280;4749;51.398;5.466;2023-11-19T01:26:40;100809.31;;;13.43;100.00
9421;BME280;4749;51.398;5.466;2023-11-19T01:29:13;100812.84;;;13.41;100.00
9421;BME280;4749;51.398;5.466;2023-11-19T01:31:45;100804.94;;;13.41;100.00
9421;BME280;4749;51.398;5.466;2023-11-19T01:34:13;100796.16;;;13.39;100.00
9421;BME280;4749;51.398;5.466;2023-11-19T01:36:40;100782.06;;;13.37;100.00
9421;BME280;4749;51.398;5.466;2023-11-19T01:39:08;100785.59;;;13.36;100.00
9421;BME280;4749;51.398;5.466;2023-11-19T01:41:36;100778.59;;;13.35;100.00
9421;BME280;4749;51.398;5.466;2023-11-19T01:44:03;100779.47;;;13.34;100.00
9421;BME280;4749;51.398;5.466;2023-11-19T01:46:32;100775.94;;;13.35;100.00
9421;BME280;4749;51.398;5.466;2023-11-19T01:49:01;100791.78;;;13.35;100.00
9421;BME280;4749;51.398;5.466;2023-11-19T01:51:29;100783.84;;;13.36;100.00
9421;BME280;4749;51.398;5.466;2023-11-19T01:53:57;100778.59;;;13.35;100.00
9421;BME280;4749;51.398;5.466;2023-11-19T01:56:26;100783.00;;;13.34;100.00
9421;BME280;4749;51.398;5.466;2023-11-19T01:58:54;100778.59;;;13.33;100.00
9421;BME280;4749;51.398;5.466;2023-11-19T02:01:22;100777.72;;;13.34;100.00
9421;BME280;4749;51.398;5.466;2023-11-19T02:03:50;100788.28;;;13.34;100.00
9421;BME280;4749;51.398;5.466;2023-11-19T02:06:17;100797.97;;;13.34;100.00
9421;BME280;4749;51.398;5.466;2023-11-19T02:08:45;100792.69;;;13.32;100.00
9421;BME280;4749;51.398;5.466;2023-11-19T02:11:12;100805.91;;;13.32;100.00
9421;BME280;4749;51.398;5.466;2023-11-19T02:13:40;100798.03;;;13.29;100.00
9421;BME280;4749;51.398;5.466;2023-11-19T02:16:08;100788.38;;;13.23;100.00
9421;BME280;4749;51.398;5.466;2023-11-19T02:18:38;100799.84;;;13.16;100.00
9421;BME280;4749;51.398;5.466;2023-11-19T02:21:06;100792.84;;;13.11;100.00
9421;BME280;4749;51.398;5.466;2023-11-19T02:23:33;100785.84;;;13.07;100.00
9421;BME280;4749;51.398;5.466;2023-11-19T02:26:26;100792.03;;;13.03;100.00
9421;BME280;4749;51.398;5.466;2023-11-19T02:28:55;100784.19;;;12.96;100.00
9421;BME280;4749;51.398;5.466;2023-11-19T02:31:22;100776.28;;;12.93;100.00
9421;BME280;4749;51.398;5.466;2023-11-19T02:33:50;100769.28;;;12.89;100.00
9421;BME280;4749;51.398;5.466;2023-11-19T02:36:17;100768.41;;;12.86;100.00
9421;BME280;4749;51.398;5.466;2023-11-19T02:38:44;100767.56;;;12.82;100.00
9421;BME280;4749;51.398;5.466;2023-11-19T02:41:14;100773.75;;;12.80;100.00
9421;BME280;4749;51.398;5.466;2023-11-19T02:43:41;100770.22;;;12.78;100.00
9421;BME280;4749;51.398;5.466;2023-11-19T02:46:08;100750.94;;;12.74;100.00
9421;BME280;4749;51.398;5.466;2023-11-19T02:48:39;100744.81;;;12.67;100.00
9421;BME280;4749;51.398;5.466;2023-11-19T02:51:06;100757.16;;;12.65;100.00
9421;BME280;4749;51.398;5.466;2023-11-19T02:53:37;100750.16;;;12.61;100.00
9421;BME280;4749;51.398;5.466;2023-11-19T02:56:05;100760.72;;;12.57;100.00
9421;BME280;4749;51.398;5.466;2023-11-19T02:58:58;100769.56;;;12.53;100.00
9421;BME280;4749;51.398;5.466;2023-11-19T03:01:25;100771.31;;;12.51;100.00
9421;BME280;4749;51.398;5.466;2023-11-19T03:04:01;100755.50;;;12.48;100.00
9421;BME280;4749;51.398;5.466;2023-11-19T03:06:30;100742.38;;;12.45;100.00
9421;BME280;4749;51.398;5.466;2023-11-19T03:08:58;100755.53;;;12.43;100.00
9421;BME280;4749;51.398;5.466;2023-11-19T03:11:30;100749.41;;;12.41;100.00
9421;BME280;4749;51.398;5.466;2023-11-19T03:13:57;100759.97;;;12.39;100.00
9421;BME280;4749;51.398;5.466;2023-11-19T03:16:24;100756.47;;;12.36;100.00
9421;BME280;4749;51.398;5.466;2023-11-19T03:18:51;100748.56;;;12.33;100.00
9421;BME280;4749;51.398;5.466;2023-11-19T03:21:19;100758.25;;;12.32;100.00
9421;BME280;4749;51.398;5.466;2023-11-19T03:23:47;100751.22;;;12.33;100.00
9421;BME280;4749;51.398;5.466;2023-11-19T03:26:14;100762.63;;;12.33;100.00
9421;BME280;4749;51.398;5.466;2023-11-19T03:28:42;100758.25;;;12.32;100.00
9421;BME280;4749;51.398;5.466;2023-11-19T03:31:09;100764.38;;;12.34;100.00
9421;BME280;4749;51.398;5.466;2023-11-19T03:33:36;100767.03;;;12.33;100.00
9421;BME280;4749;51.398;5.466;2023-11-19T03:36:05;100767.91;;;12.32;100.00
9421;BME280;4749;51.398;5.466;2023-11-19T03:38:33;100760.03;;;12.30;100.00
9421;BME280;4749;51.398;5.466;2023-11-19T03:41:00;100765.25;;;12.35;100.00
9421;BME280;4749;51.398;5.466;2023-11-19T03:43:28;100761.75;;;12.31;100.00
9421;BME280;4749;51.398;5.466;2023-11-19T03:45:55;100752.09;;;12.33;100.00
9421;BME280;4749;51.398;5.466;2023-11-19T03:48:22;100762.66;;;12.30;100.00
9421;BME280;4749;51.398;5.466;2023-11-19T03:50:50;100753.88;;;12.25;100.00
9421;BME280;4749;51.398;5.466;2023-11-19T03:53:17;100758.28;;;12.25;100.00
9421;BME280;4749;51.398;5.466;2023-11-19T03:55:45;100759.16;;;12.24;100.00
9421;BME280;4749;51.398;5.466;2023-11-19T03:58:12;100768.84;;;12.23;100.00
9421;BME280;4749;51.398;5.466;2023-11-19T04:00:40;100764.47;;;12.22;100.00
9421;BME280;4749;51.398;5.466;2023-11-19T04:03:08;100779.41;;;12.22;100.00
9421;BME280;4749;51.398;5.466;2023-11-19T04:05:35;100783.75;;;12.24;100.00
9421;BME280;4749;51.398;5.466;2023-11-19T04:08:02;100782.03;;;12.23;100.00
9421;BME280;4749;51.398;5.466;2023-11-19T04:10:29;100785.53;;;12.24;100.00
9421;BME280;4749;51.398;5.466;2023-11-19T04:12:56;100770.59;;;12.23;100.00
9421;BME280;4749;51.398;5.466;2023-11-19T04:15:24;100771.47;;;12.23;100.00
9421;BME280;4749;51.398;5.466;2023-11-19T04:17:51;100774.97;;;12.24;100.00
9421;BME280;4749;51.398;5.466;2023-11-19T04:20:18;100771.44;;;12.29;100.00
9421;BME280;4749;51.398;5.466;2023-11-19T04:22:45;100773.19;;;12.32;100.00
9421;BME280;4749;51.398;5.466;2023-11-19T04:25:13;100774.94;;;12.31;100.00
9421;BME280;4749;51.398;5.466;2023-11-19T04:27:42;100784.63;;;12.29;100.00
9421;BME280;4749;51.398;5.466;2023-11-19T04:30:09;100785.50;;;12.27;100.00
9421;BME280;4749;51.398;5.466;2023-11-19T04:32:38;100782.00;;;12.25;100.00
9421;BME280;4749;51.398;5.466;2023-11-19T04:35:06;100790.78;;;12.27;100.00
9421;BME280;4749;51.398;5.466;2023-11-19T04:37:34;100811.00;;;12.29;100.00
9421;BME280;4749;51.398;5.466;2023-11-19T04:40:02;100801.31;;;12.31;100.00
9421;BME280;4749;51.398;5.466;2023-11-19T04:42:30;100784.59;;;12.32;100.00
9421;BME280;4749;51.398;5.466;2023-11-19T04:44:58;100789.00;;;12.32;100.00
9421;BME280;4749;51.398;5.466;2023-11-19T04:47:26;100773.22;;;12.29;100.00
9421;BME280;4749;51.398;5.466;2023-11-19T04:49:53;100769.69;;;12.25;100.00
9421;BME280;4749;51.398;5.466;2023-11-19T04:52:20;100775.00;;;12.21;100.00
9421;BME280;4749;51.398;5.466;2023-11-19T04:54:47;100781.16;;;12.20;100.00
9421;BME280;4749;51.398;5.466;2023-11-19T04:57:15;100775.03;;;12.19;100.00
9421;BME280;4749;51.398;5.466;2023-11-19T04:59:42;100781.16;;;12.17;100.00
9421;BME280;4749;51.398;5.466;2023-11-19T05:02:09;100783.84;;;12.14;100.00
9421;BME280;4749;51.398;5.466;2023-11-19T05:04:37;100790.00;;;12.11;100.00
9421;BME280;4749;51.398;5.466;2023-11-19T05:07:07;100790.00;;;12.06;100.00
9421;BME280;4749;51.398;5.466;2023-11-19T05:09:34;100798.81;;;12.04;100.00
9421;BME280;4749;51.398;5.466;2023-11-19T05:12:02;100788.28;;;12.02;100.00
9421;BME280;4749;51.398;5.466;2023-11-19T05:14:30;100792.66;;;12.03;100.00
9421;BME280;4749;51.398;5.466;2023-11-19T05:16:57;100794.44;;;12.03;100.00
9421;BME280;4749;51.398;5.466;2023-11-19T05:19:24;100800.53;;;12.02;100.00
9421;BME280;4749;51.398;5.466;2023-11-19T05:21:51;100801.47;;;12.02;100.00
9421;BME280;4749;51.398;5.466;2023-11-19T05:24:19;100798.78;;;12.01;100.00
9421;BME280;4749;51.398;5.466;2023-11-19T05:26:47;100794.44;;;11.98;100.00
9421;BME280;4749;51.398;5.466;2023-11-19T05:29:14;100790.06;;;11.94;100.00
9421;BME280;4749;51.398;5.466;2023-11-19T05:31:42;100800.59;;;11.91;100.00
9421;BME280;4749;51.398;5.466;2023-11-19T05:34:11;100806.75;;;11.89;100.00
9421;BME280;4749;51.398;5.466;2023-11-19T05:36:39;100812.03;;;11.87;100.00
9421;BME280;4749;51.398;5.466;2023-11-19T05:39:06;100808.50;;;11.85;100.00
9421;BME280;4749;51.398;5.466;2023-11-19T05:41:33;100799.75;;;11.83;100.00
9421;BME280;4749;51.398;5.466;2023-11-19T05:44:01;100799.75;;;11.81;100.00
9421;BME280;4749;51.398;5.466;2023-11-19T05:46:28;100799.75;;;11.78;100.00
9421;BME280;4749;51.398;5.466;2023-11-19T05:48:56;100798.84;;;11.76;100.00
9421;BME280;4749;51.398;5.466;2023-11-19T05:51:23;100795.34;;;11.74;100.00
9421;BME280;4749;51.398;5.466;2023-11-19T05:53:51;100808.50;;;11.74;100.00
9421;BME280;4749;51.398;5.466;2023-11-19T05:56:19;100813.78;;;11.73;100.00
9421;BME280;4749;51.398;5.466;2023-11-19T05:58:49;100808.53;;;11.71;100.00
9421;BME280;4749;51.398;5.466;2023-11-19T06:01:16;100806.78;;;11.67;100.00
9421;BME280;4749;51.398;5.466;2023-11-19T06:03:44;100799.75;;;11.66;100.00
9421;BME280;4749;51.398;5.466;2023-11-19T06:06:16;100812.06;;;11.63;100.00
9421;BME280;4749;51.398;5.466;2023-11-19T06:08:43;100808.53;;;11.59;100.00
9421;BME280;4749;51.398;5.466;2023-11-19T06:11:11;100812.06;;;11.58;100.00
9421;BME280;4749;51.398;5.466;2023-11-19T06:13:45;100817.34;;;11.56;100.00
9421;BME280;4749;51.398;5.466;2023-11-19T06:16:14;100832.28;;;11.54;100.00
9421;BME280;4749;51.398;5.466;2023-11-19T06:18:41;100812.97;;;11.52;100.00
9421;BME280;4749;51.398;5.466;2023-11-19T06:21:12;100808.56;;;11.51;100.00
9421;BME280;4749;51.398;5.466;2023-11-19T06:23:39;100810.31;;;11.49;100.00
9421;BME280;4749;51.398;5.466;2023-11-19T06:26:06;100808.59;;;11.47;100.00
9421;BME280;4749;51.398;5.466;2023-11-19T06:28:34;100813.88;;;11.44;100.00
9421;BME280;4749;51.398;5.466;2023-11-19T06:31:01;100817.34;;;11.43;100.00
9421;BME280;4749;51.398;5.466;2023-11-19T06:33:29;100815.59;;;11.40;100.00
9421;BME280;4749;51.398;5.466;2023-11-19T06:35:56;100816.50;;;11.38;100.00
9421;BME280;4749;51.398;5.466;2023-11-19T06:38:23;100820.00;;;11.37;100.00
9421;BME280;4749;51.398;5.466;2023-11-19T06:40:50;100800.69;;;11.38;100.00
9421;BME280;4749;51.398;5.466;2023-11-19T06:43:20;100807.72;;;11.36;100.00
9421;BME280;4749;51.398;5.466;2023-11-19T06:45:48;100809.47;;;11.37;100.00
9421;BME280;4749;51.398;5.466;2023-11-19T06:48:16;100812.13;;;11.35;100.00
9421;BME280;4749;51.398;5.466;2023-11-19T06:50:43;100802.44;;;11.33;100.00
9421;BME280;4749;51.398;5.466;2023-11-19T06:53:10;100799.81;;;11.31;100.00
9421;BME280;4749;51.398;5.466;2023-11-19T06:55:38;100802.47;;;11.28;100.00
9421;BME280;4749;51.398;5.466;2023-11-19T06:58:06;100802.47;;;11.28;100.00
9421;BME280;4749;51.398;5.466;2023-11-19T07:00:33;100816.50;;;11.28;100.00
9421;BME280;4749;51.398;5.466;2023-11-19T07:03:02;100809.50;;;11.27;100.00
9421;BME280;4749;51.398;5.466;2023-11-19T07:05:30;100825.28;;;11.27;100.00
9421;BME280;4749;51.398;5.466;2023-11-19T07:07:57;100816.50;;;11.27;100.00
9421;BME280;4749;51.398;5.466;2023-11-19T07:10:26;100827.03;;;11.27;100.00
9421;BME280;4749;51.398;5.466;2023-11-19T07:12:53;100833.16;;;11.26;100.00
9421;BME280;4749;51.398;5.466;2023-11-19T07:15:21;100834.06;;;11.28;100.00
9421;BME280;4749;51.398;5.466;2023-11-19T07:17:48;100834.91;;;11.32;100.00
9421;BME280;4749;51.398;5.466;2023-11-19T07:20:27;100845.44;;;11.32;100.00
9421;BME280;4749;51.398;5.466;2023-11-19T07:22:54;100844.56;;;11.34;100.00
9421;BME280;4749;51.398;5.466;2023-11-19T07:25:24;100847.22;;;11.36;100.00
9421;BME280;4749;51.398;5.466;2023-11-19T07:27:52;100840.19;;;11.38;100.00
9421;BME280;4749;51.398;5.466;2023-11-19T07:30:19;100851.56;;;11.43;100.00
9421;BME280;4749;51.398;5.466;2023-11-19T07:32:47;100846.31;;;11.46;100.00
9421;BME280;4749;51.398;5.466;2023-11-19T07:35:15;100847.16;;;11.51;100.00
9421;BME280;4749;51.398;5.466;2023-11-19T07:37:43;100857.72;;;11.55;100.00
9421;BME280;4749;51.398;5.466;2023-11-19T07:40:10;100869.09;;;11.59;100.00
9421;BME280;4749;51.398;5.466;2023-11-19T07:42:39;100867.38;;;11.63;100.00
9421;BME280;4749;51.398;5.466;2023-11-19T07:45:07;100864.72;;;11.64;100.00
9421;BME280;4749;51.398;5.466;2023-11-19T07:47:34;100856.81;;;11.66;100.00
9421;BME280;4749;51.398;5.466;2023-11-19T07:50:01;100860.34;;;11.69;100.00
9421;BME280;4749;51.398;5.466;2023-11-19T07:52:28;100860.31;;;11.72;100.00
9421;BME280;4749;51.398;5.466;2023-11-19T07:54:56;100857.69;;;11.74;100.00
9421;BME280;4749;51.398;5.466;2023-11-19T07:57:23;100854.16;;;11.75;100.00
9421;BME280;4749;51.398;5.466;2023-11-19T07:59:51;100843.63;;;11.76;100.00
9421;BME280;4749;51.398;5.466;2023-11-19T08:02:18;100850.69;;;11.80;100.00
9421;BME280;4749;51.398;5.466;2023-11-19T08:04:46;100859.44;;;11.84;100.00
9421;BME280;4749;51.398;5.466;2023-11-19T08:07:13;100861.22;;;11.87;100.00
9421;BME280;4749;51.398;5.466;2023-11-19T08:09:41;100860.34;;;11.88;100.00
9421;BME280;4749;51.398;5.466;2023-11-19T08:12:09;100850.66;;;11.91;100.00
9421;BME280;4749;51.398;5.466;2023-11-19T08:14:36;100862.06;;;11.98;100.00
9421;BME280;4749;51.398;5.466;2023-11-19T08:17:04;100865.56;;;12.00;100.00
9421;BME280;4749;51.398;5.466;2023-11-19T08:19:31;100864.69;;;12.02;100.00
9421;BME280;4749;51.398;5.466;2023-11-19T08:21:58;100857.63;;;12.06;100.00
9421;BME280;4749;51.398;5.466;2023-11-19T08:24:25;100863.75;;;12.09;100.00
9421;BME280;4749;51.398;5.466;2023-11-19T08:26:53;100867.28;;;12.15;100.00
9421;BME280;4749;51.398;5.466;2023-11-19T08:29:23;100866.38;;;12.19;100.00
9421;BME280;4749;51.398;5.466;2023-11-19T08:31:50;100866.38;;;12.22;100.00
9421;BME280;4749;51.398;5.466;2023-11-19T08:34:17;100862.84;;;12.24;100.00
9421;BME280;4749;51.398;5.466;2023-11-19T08:36:44;100867.22;;;12.30;100.00
9421;BME280;4749;51.398;5.466;2023-11-19T08:39:12;100854.91;;;12.32;100.00
9421;BME280;4749;51.398;5.466;2023-11-19T08:41:41;100859.28;;;12.34;100.00
9421;BME280;4749;51.398;5.466;2023-11-19T08:44:08;100860.16;;;12.36;100.00
9421;BME280;4749;51.398;5.466;2023-11-19T08:46:36;100863.66;;;12.38;100.00
9421;BME280;4749;51.398;5.466;2023-11-19T08:49:03;100860.16;;;12.38;100.00
9421;BME280;4749;51.398;5.466;2023-11-19T08:51:30;100859.25;;;12.45;100.00
9421;BME280;4749;51.398;5.466;2023-11-19T08:53:58;100871.53;;;12.48;100.00
9421;BME280;4749;51.398;5.466;2023-11-19T08:56:25;100859.22;;;12.53;100.00
9421;BME280;4749;51.398;5.466;2023-11-19T08:58:59;100859.16;;;12.59;100.00
9421;BME280;4749;51.398;5.466;2023-11-19T09:01:26;100857.41;;;12.59;100.00
9421;BME280;4749;51.398;5.466;2023-11-19T09:03:53;100861.78;;;12.63;100.00
9421;BME280;4749;51.398;5.466;2023-11-19T09:06:20;100859.06;;;12.77;100.00
9421;BME280;4749;51.398;5.466;2023-11-19T09:08:48;100861.63;;;12.89;100.00
9421;BME280;4749;51.398;5.466;2023-11-19T09:11:15;100859.84;;;12.96;100.00
9421;BME280;4749;51.398;5.466;2023-11-19T09:13:43;100865.06;;;13.01;100.00
9421;BME280;4749;51.398;5.466;2023-11-19T09:16:12;100859.78;;;13.05;100.00
9421;BME280;4749;51.398;5.466;2023-11-19T09:18:39;100843.94;;;13.05;100.00
9421;BME280;4749;51.398;5.466;2023-11-19T09:21:07;100856.22;;;13.09;100.00
9421;BME280;4749;51.398;5.466;2023-11-19T09:23:34;100850.00;;;13.19;100.00
9421;BME280;4749;51.398;5.466;2023-11-19T09:26:06;100856.16;;;13.23;100.00
9421;BME280;4749;51.398;5.466;2023-11-19T09:28:35;100851.69;;;13.31;100.00
9421;BME280;4749;51.398;5.466;2023-11-19T09:31:02;100852.50;;;13.38;100.00
9421;BME280;4749;51.398;5.466;2023-11-19T09:33:32;100847.09;;;13.51;100.00
9421;BME280;4749;51.398;5.466;2023-11-19T09:36:02;100851.41;;;13.60;100.00
9421;BME280;4749;51.398;5.466;2023-11-19T09:38:29;100843.44;;;13.66;100.00
9421;BME280;4749;51.398;5.466;2023-11-19T09:40:57;100842.50;;;13.72;100.00
9421;BME280;4749;51.398;5.466;2023-11-19T09:43:25;100839.78;;;13.76;100.00
9421;BME280;4749;51.398;5.466;2023-11-19T09:45:55;100828.28;;;13.82;100.00
9421;BME280;4749;51.398;5.466;2023-11-19T09:48:25;100845.84;;;13.86;100.00
9421;BME280;4749;51.398;5.466;2023-11-19T09:50:53;100836.16;;;13.88;100.00
9421;BME280;4749;51.398;5.466;2023-11-19T09:53:20;100846.56;;;14.02;100.00
9421;BME280;4749;51.398;5.466;2023-11-19T09:55:48;100842.81;;;14.21;100.00
9421;BME280;4749;51.398;5.466;2023-11-19T09:58:15;100832.03;;;14.36;100.00
9421;BME280;4749;51.398;5.466;2023-11-19T10:00:43;100848.72;;;14.42;100.00
9421;BME280;4749;51.398;5.466;2023-11-19T10:03:22;100826.72;;;14.40;100.00
9421;BME280;4749;51.398;5.466;2023-11-19T10:05:50;100833.72;;;14.45;100.00
9421;BME280;4749;51.398;5.466;2023-11-19T10:08:18;100835.47;;;14.48;100.00
9421;BME280;4749;51.398;5.466;2023-11-19T10:10:45;100822.31;;;14.40;100.00
9421;BME280;4749;51.398;5.466;2023-11-19T10:13:12;100821.56;;;14.30;100.00
9421;BME280;4749;51.398;5.466;2023-11-19T10:15:44;100815.53;;;14.18;100.00
9421;BME280;4749;51.398;5.466;2023-11-19T10:18:11;100815.59;;;14.13;100.00
9421;BME280;4749;51.398;5.466;2023-11-19T10:20:41;100818.25;;;14.12;100.00
9421;BME280;4749;51.398;5.466;2023-11-19T10:23:08;100819.13;;;14.14;100.00
9421;BME280;4749;51.398;5.466;2023-11-19T10:25:37;100820.81;;;14.18;100.00
9421;BME280;4749;51.398;5.466;2023-11-19T10:28:04;100816.16;;;14.38;100.00
9421;BME280;4749;51.398;5.466;2023-11-19T10:30:31;100818.59;;;14.56;100.00
9421;BME280;4749;51.398;5.466;2023-11-19T10:33:13;100811.31;;;14.72;100.00
9421;BME280;4749;51.398;5.466;2023-11-19T10:35:53;100810.41;;;14.73;100.00
9421;BME280;4749;51.398;5.466;2023-11-19T10:38:24;100816.56;;;14.74;100.00
9421;BME280;4749;51.398;5.466;2023-11-19T10:40:53;100815.72;;;14.70;100.00
9421;BME280;4749;51.398;5.466;2023-11-19T10:43:22;100807.75;;;14.73;100.00
9421;BME280;4749;51.398;5.466;2023-11-19T10:45:50;100813.06;;;14.73;100.00
9421;BME280;4749;51.398;5.466;2023-11-19T10:48:18;100813.06;;;14.73;100.00
9421;BME280;4749;51.398;5.466;2023-11-19T10:50:53;100795.66;;;14.57;100.00
9421;BME280;4749;51.398;5.466;2023-11-19T10:53:24;100811.56;;;14.52;100.00
9421;BME280;4749;51.398;5.466;2023-11-19T10:55:54;100806.16;;;14.61;100.00
9421;BME280;4749;51.398;5.466;2023-11-19T10:58:27;100816.50;;;14.77;100.00
9421;BME280;4749;51.398;5.466;2023-11-19T11:00:58;100820.81;;;14.84;100.00
9421;BME280;4749;51.398;5.466;2023-11-19T11:03:38;100809.41;;;14.82;100.00
9421;BME280;4749;51.398;5.466;2023-11-19T11:06:07;100809.41;;;14.79;100.00
9421;BME280;4749;51.398;5.466;2023-11-19T11:08:37;100808.66;;;14.71;100.00
9421;BME280;4749;51.398;5.466;2023-11-19T11:11:08;100807.13;;;14.56;100.00
9421;BME280;4749;51.398;5.466;2023-11-19T11:13:39;100797.53;;;14.49;100.00
9421;BME280;4749;51.398;5.466;2023-11-19T11:16:09;100802.84;;;14.44;100.00
9421;BME280;4749;51.398;5.466;2023-11-19T11:18:37;100793.38;;;14.29;100.00
9421;BME280;4749;51.398;5.466;2023-11-19T11:21:14;100798.69;;;14.26;100.00
9421;BME280;4749;51.398;5.466;2023-11-19T11:24:33;100787.28;;;14.20;100.00
9421;BME280;4749;51.398;5.466;2023-11-19T11:33:13;100791.84;;;14.10;100.00
9421;BME280;4749;51.398;5.466;2023-11-19T11:38:29;100805.38;;;13.84;100.00
9421;BME280;4749;51.398;5.466;2023-11-19T11:41:29;100796.63;;;13.79;100.00
9421;BME280;4749;51.398;5.466;2023-11-19T11:43:59;100791.34;;;13.79;100.00
9421;BME280;4749;51.398;5.466;2023-11-19T11:49:05;100766.84;;;13.65;100.00
9421;BME280;4749;51.398;5.466;2023-11-19T11:54:29;100768.84;;;13.41;100.00
9421;BME280;4749;51.398;5.466;2023-11-19T11:57:09;100771.44;;;13.46;100.00
9421;BME280;4749;51.398;5.466;2023-11-19T12:02:12;100772.25;;;13.54;100.00
9421;BME280;4749;51.398;5.466;2023-11-19T12:04:40;100775.69;;;13.59;100.00
9421;BME280;4749;51.398;5.466;2023-11-19T12:07:18;100771.28;;;13.63;100.00
9421;BME280;4749;51.398;5.466;2023-11-19T12:10:05;100772.91;;;13.73;100.00
9421;BME280;4749;51.398;5.466;2023-11-19T12:12:35;100767.56;;;13.77;100.00
9421;BME280;4749;51.398;5.466;2023-11-19T12:15:09;100759.63;;;13.77;100.00
9421;BME280;4749;51.398;5.466;2023-11-19T12:17:43;100761.34;;;13.83;100.00
9421;BME280;4749;51.398;5.466;2023-11-19T12:20:12;100755.00;;;13.98;100.00
9421;BME280;4749;51.398;5.466;2023-11-19T12:22:41;100748.66;;;14.09;100.00
9421;BME280;4749;51.398;5.466;2023-11-19T12:25:11;100754.78;;;14.12;100.00
9421;BME280;4749;51.398;5.466;2023-11-19T12:27:49;100747.78;;;14.09;100.00
9421;BME280;4749;51.398;5.466;2023-11-19T12:30:24;100747.00;;;14.02;100.00
9421;BME280;4749;51.398;5.466;2023-11-19T12:32:53;100759.41;;;13.97;100.00
9421;BME280;4749;51.398;5.466;2023-11-19T12:35:22;100752.38;;;13.95;100.00
9421;BME280;4749;51.398;5.466;2023-11-19T12:37:51;100759.38;;;13.99;100.00
9421;BME280;4749;51.398;5.466;2023-11-19T12:40:20;100751.34;;;14.06;100.00
9421;BME280;4749;51.398;5.466;2023-11-19T12:42:52;100756.66;;;14.06;100.00
9421;BME280;4749;51.398;5.466;2023-11-19T12:45:21;100768.16;;;14.01;100.00
9421;BME280;4749;51.398;5.466;2023-11-19T12:48:07;100759.44;;;13.94;100.00
9421;BME280;4749;51.398;5.466;2023-11-19T12:50:57;100751.59;;;13.88;100.00
9421;BME280;4749;51.398;5.466;2023-11-19T12:53:26;100748.03;;;13.91;100.00
9421;BME280;4749;51.398;5.466;2023-11-19T12:55:54;100753.28;;;13.92;100.00
9421;BME280;4749;51.398;5.466;2023-11-19T12:58:35;100757.72;;;13.92;100.00
9421;BME280;4749;51.398;5.466;2023-11-19T13:01:06;100755.91;;;13.94;100.00
9421;BME280;4749;51.398;5.466;2023-11-19T13:03:36;100754.94;;;14.01;100.00
9421;BME280;4749;51.398;5.466;2023-11-19T13:06:09;100755.88;;;13.95;100.00
9421;BME280;4749;51.398;5.466;2023-11-19T13:08:49;100767.56;;;13.76;100.00
9421;BME280;4749;51.398;5.466;2023-11-19T13:11:35;100771.28;;;13.63;100.00
9421;BME280;4749;51.398;5.466;2023-11-19T13:14:05;100768.53;;;13.72;100.00
9421;BME280;4749;51.398;5.466;2023-11-19T13:16:32;100759.63;;;13.77;100.00
9421;BME280;4749;51.398;5.466;2023-11-19T13:19:00;100760.56;;;13.75;100.00
9421;BME280;4749;51.398;5.466;2023-11-19T13:21:28;100772.78;;;13.84;100.00
9421;BME280;4749;51.398;5.466;2023-11-19T13:23:57;100754.03;;;14.02;100.00
9421;BME280;4749;51.398;5.466;2023-11-19T13:26:24;100753.94;;;14.09;100.00